createdAt,value
2022-09-15T00:00:35.472Z,95.20
2022-09-15T00:01:35.728Z,95.00
2022-09-15T00:02:35.689Z,94.70
2022-09-15T00:03:35.683Z,94.70
2022-09-15T00:04:35.767Z,94.79
2022-09-15T00:05:35.849Z,94.70
2022-09-15T00:06:35.926Z,94.70
2022-09-15T00:07:36.077Z,95.00
2022-09-15T00:08:36.113Z,95.00
2022-09-15T00:09:36.145Z,94.90
2022-09-15T00:10:36.223Z,95.00
2022-09-15T00:11:36.290Z,94.90
2022-09-15T00:12:36.384Z,95.00
2022-09-15T00:13:36.430Z,94.90
2022-09-15T00:14:36.529Z,94.90
2022-09-15T00:15:36.593Z,95.10
2022-09-15T00:16:36.791Z,94.90
2022-09-15T00:17:36.768Z,95.10
2022-09-15T00:18:36.865Z,94.90
2022-09-15T00:19:36.926Z,94.90
2022-09-15T00:20:37.031Z,94.90
2022-09-15T00:21:37.116Z,94.90
2022-09-15T00:22:37.216Z,94.90
2022-09-15T00:23:37.276Z,94.90
2022-09-15T00:24:37.373Z,95.00
2022-09-15T00:25:37.438Z,94.90
2022-09-15T00:26:37.518Z,94.90
2022-09-15T00:27:37.608Z,94.90
2022-09-15T00:28:37.658Z,94.79
2022-09-15T00:29:37.730Z,94.70
2022-09-15T00:30:37.869Z,94.49
2022-09-15T00:31:37.938Z,94.39
2022-09-15T00:32:38.021Z,94.70
2022-09-15T00:33:38.092Z,94.70
2022-09-15T00:34:38.190Z,94.90
2022-09-15T00:35:38.258Z,94.29
2022-09-15T00:36:38.336Z,94.39
2022-09-15T00:37:38.412Z,94.59
2022-09-15T00:38:38.507Z,94.29
2022-09-15T00:39:38.598Z,94.59
2022-09-15T00:40:38.690Z,94.59
2022-09-15T00:41:38.746Z,94.70
2022-09-15T00:42:38.869Z,94.49
2022-09-15T00:43:38.919Z,94.59
2022-09-15T00:44:39.019Z,94.59
2022-09-15T00:45:39.239Z,94.79
2022-09-15T00:46:39.196Z,94.59
2022-09-15T00:47:39.268Z,94.49
2022-09-15T00:48:39.351Z,94.59
2022-09-15T00:49:39.440Z,94.79
2022-09-15T00:50:39.523Z,95.20
2022-09-15T00:51:39.620Z,95.20
2022-09-15T00:52:39.701Z,95.00
2022-09-15T00:53:39.743Z,95.10
2022-09-15T00:54:39.856Z,95.20
2022-09-15T00:55:39.899Z,95.10
2022-09-15T00:56:40.013Z,95.00
2022-09-15T00:57:40.097Z,94.79
2022-09-15T00:58:40.169Z,94.59
2022-09-15T00:59:40.242Z,94.59
2022-09-15T01:00:40.349Z,94.49
2022-09-15T01:01:40.482Z,94.49
2022-09-15T01:02:40.598Z,94.59
2022-09-15T01:03:40.617Z,94.49
2022-09-15T01:04:40.706Z,94.79
2022-09-15T01:05:40.782Z,94.70
2022-09-15T01:06:40.884Z,94.70
2022-09-15T01:07:40.990Z,94.59
2022-09-15T01:08:41.084Z,94.49
2022-09-15T01:09:41.108Z,94.39
2022-09-15T01:10:41.182Z,94.29
2022-09-15T01:11:41.287Z,94.29
2022-09-15T01:12:41.370Z,94.29
2022-09-15T01:13:41.450Z,94.29
2022-09-15T01:14:41.534Z,94.39
2022-09-15T01:15:41.644Z,94.29
2022-09-15T01:16:41.785Z,94.70
2022-09-15T01:17:41.840Z,94.49
2022-09-15T01:18:41.880Z,94.29
2022-09-15T01:19:41.980Z,94.19
2022-09-15T01:20:42.045Z,94.39
2022-09-15T01:21:42.152Z,94.29
2022-09-15T01:22:42.251Z,94.59
2022-09-15T01:23:42.327Z,94.70
2022-09-15T01:24:42.386Z,94.39
2022-09-15T01:25:42.493Z,94.29
2022-09-15T01:26:42.571Z,94.09
2022-09-15T01:27:43.212Z,94.29
2022-09-15T01:28:43.854Z,94.49
2022-09-15T01:29:42.841Z,94.39
2022-09-15T01:30:42.931Z,94.59
2022-09-15T01:31:43.071Z,94.49
2022-09-15T01:32:43.125Z,94.29
2022-09-15T01:33:43.187Z,94.39
2022-09-15T01:34:43.262Z,94.49
2022-09-15T01:35:43.372Z,94.49
2022-09-15T01:36:43.448Z,94.59
2022-09-15T01:37:43.559Z,94.70
2022-09-15T01:38:43.604Z,94.59
2022-09-15T01:39:43.686Z,94.29
2022-09-15T01:40:43.764Z,94.59
2022-09-15T01:41:43.875Z,94.59
2022-09-15T01:42:43.967Z,94.70
2022-09-15T01:43:44.037Z,94.59
2022-09-15T01:44:44.114Z,94.49
2022-09-15T01:45:44.263Z,94.59
2022-09-15T01:46:44.284Z,94.39
2022-09-15T01:47:44.420Z,94.19
2022-09-15T01:48:44.473Z,94.29
2022-09-15T01:49:44.548Z,94.29
2022-09-15T01:50:44.634Z,94.39
2022-09-15T01:51:44.700Z,94.29
2022-09-15T01:52:46.654Z,94.39
2022-09-15T01:53:44.958Z,94.39
2022-09-15T01:54:44.928Z,94.09
2022-09-15T01:55:45.009Z,93.99
2022-09-15T01:56:45.119Z,93.99
2022-09-15T01:57:45.198Z,93.99
2022-09-15T01:58:45.290Z,93.88
2022-09-15T01:59:45.331Z,93.88
2022-09-15T02:00:45.488Z,93.78
2022-09-15T02:01:45.548Z,93.68
2022-09-15T02:02:45.704Z,93.68
2022-09-15T02:03:45.710Z,93.78
2022-09-15T02:04:45.789Z,93.63
2022-09-15T02:05:45.870Z,93.58
2022-09-15T02:06:45.948Z,93.54
2022-09-15T02:07:46.033Z,93.58
2022-09-15T02:08:46.151Z,93.58
2022-09-15T02:09:46.185Z,93.88
2022-09-15T02:10:46.291Z,93.78
2022-09-15T02:11:46.372Z,93.68
2022-09-15T02:12:46.445Z,94.19
2022-09-15T02:13:46.545Z,94.19
2022-09-15T02:14:46.620Z,94.09
2022-09-15T02:15:46.690Z,94.04
2022-09-15T02:16:46.846Z,94.09
2022-09-15T02:17:46.889Z,93.99
2022-09-15T02:18:47.025Z,93.88
2022-09-15T02:19:47.074Z,94.09
2022-09-15T02:20:47.153Z,93.88
2022-09-15T02:21:47.232Z,93.88
2022-09-15T02:22:47.336Z,93.99
2022-09-15T02:23:47.425Z,93.99
2022-09-15T02:24:47.504Z,93.99
2022-09-15T02:25:47.587Z,94.09
2022-09-15T02:26:47.667Z,94.19
2022-09-15T02:27:47.749Z,94.29
2022-09-15T02:28:47.840Z,94.39
2022-09-15T02:29:47.878Z,94.19
2022-09-15T02:30:47.952Z,94.09
2022-09-15T02:31:48.090Z,94.19
2022-09-15T02:32:48.108Z,94.19
2022-09-15T02:33:48.207Z,94.09
2022-09-15T02:34:48.287Z,93.99
2022-09-15T02:35:48.362Z,93.88
2022-09-15T02:36:48.442Z,93.99
2022-09-15T02:37:48.527Z,94.19
2022-09-15T02:38:48.615Z,94.29
2022-09-15T02:39:48.733Z,94.19
2022-09-15T02:40:48.747Z,94.19
2022-09-15T02:41:48.800Z,94.09
2022-09-15T02:42:48.884Z,94.19
2022-09-15T02:43:48.953Z,94.19
2022-09-15T02:44:49.043Z,94.19
2022-09-15T02:45:49.212Z,94.19
2022-09-15T02:46:49.241Z,94.19
2022-09-15T02:47:49.325Z,94.19
2022-09-15T02:48:49.454Z,94.29
2022-09-15T02:49:49.482Z,94.29
2022-09-15T02:50:49.559Z,94.29
2022-09-15T02:51:49.613Z,94.19
2022-09-15T02:52:49.697Z,94.29
2022-09-15T02:53:49.865Z,94.29
2022-09-15T02:54:49.853Z,94.59
2022-09-15T02:55:49.936Z,94.59
2022-09-15T02:56:50.011Z,94.70
2022-09-15T02:57:50.092Z,94.49
2022-09-15T02:58:50.197Z,94.49
2022-09-15T02:59:50.225Z,94.70
2022-09-15T03:00:50.359Z,94.59
2022-09-15T03:01:50.411Z,94.49
2022-09-15T03:02:50.459Z,94.39
2022-09-15T03:03:50.561Z,94.39
2022-09-15T03:04:50.641Z,94.39
2022-09-15T03:05:50.723Z,94.29
2022-09-15T03:06:50.807Z,94.29
2022-09-15T03:07:50.891Z,94.59
2022-09-15T03:08:51.289Z,94.49
2022-09-15T03:09:51.059Z,94.49
2022-09-15T03:10:51.128Z,94.49
2022-09-15T03:11:51.211Z,94.39
2022-09-15T03:12:51.307Z,94.39
2022-09-15T03:13:51.407Z,94.39
2022-09-15T03:14:51.486Z,94.29
2022-09-15T03:15:51.607Z,94.29
2022-09-15T03:16:51.648Z,94.19
2022-09-15T03:17:51.734Z,94.29
2022-09-15T03:18:51.813Z,94.29
2022-09-15T03:19:51.875Z,94.19
2022-09-15T03:20:51.982Z,94.19
2022-09-15T03:21:52.062Z,94.19
2022-09-15T03:22:52.168Z,94.29
2022-09-15T03:23:52.379Z,94.29
2022-09-15T03:24:52.330Z,94.09
2022-09-15T03:25:52.415Z,94.19
2022-09-15T03:26:52.489Z,94.19
2022-09-15T03:27:52.572Z,94.19
2022-09-15T03:28:52.733Z,94.19
2022-09-15T03:29:52.736Z,94.09
2022-09-15T03:30:52.808Z,94.29
2022-09-15T03:31:52.892Z,94.49
2022-09-15T03:32:52.975Z,94.49
2022-09-15T03:33:53.077Z,94.39
2022-09-15T03:34:57.717Z,94.49
2022-09-15T03:35:53.252Z,94.39
2022-09-15T03:36:53.340Z,94.39
2022-09-15T03:37:53.412Z,94.39
2022-09-15T03:38:53.531Z,94.39
2022-09-15T03:39:53.619Z,94.19
2022-09-15T03:40:53.691Z,94.19
2022-09-15T03:41:53.774Z,93.99
2022-09-15T03:42:53.876Z,93.99
2022-09-15T03:43:53.962Z,93.99
2022-09-15T03:44:54.028Z,93.99
2022-09-15T03:45:54.193Z,93.99
2022-09-15T03:46:54.214Z,93.88
2022-09-15T03:47:54.302Z,93.78
2022-09-15T03:48:54.435Z,93.88
2022-09-15T03:49:54.478Z,93.68
2022-09-15T03:50:54.552Z,93.78
2022-09-15T03:51:54.632Z,93.88
2022-09-15T03:52:58.743Z,93.88
2022-09-15T03:53:54.814Z,93.78
2022-09-15T03:54:54.877Z,93.68
2022-09-15T03:55:54.952Z,93.68
2022-09-15T03:56:55.030Z,93.68
2022-09-15T03:57:55.118Z,93.38
2022-09-15T03:58:55.211Z,93.48
2022-09-15T03:59:55.285Z,93.58
2022-09-15T04:00:55.406Z,93.62
2022-09-15T04:01:55.543Z,93.73
2022-09-15T04:02:55.570Z,93.73
2022-09-15T04:03:55.664Z,93.73
2022-09-15T04:04:55.744Z,93.62
2022-09-15T04:05:55.795Z,93.62
2022-09-15T04:06:55.880Z,93.93
2022-09-15T04:07:55.935Z,94.03
2022-09-15T04:08:56.048Z,93.93
2022-09-15T04:09:56.104Z,94.03
2022-09-15T04:10:56.190Z,94.07
2022-09-15T04:11:56.241Z,94.07
2022-09-15T04:12:56.329Z,94.18
2022-09-15T04:13:56.434Z,94.27
2022-09-15T04:14:56.514Z,94.27
2022-09-15T04:15:56.590Z,94.27
2022-09-15T04:16:56.675Z,94.27
2022-09-15T04:17:56.723Z,94.48
2022-09-15T04:18:56.823Z,94.58
2022-09-15T04:19:56.884Z,94.48
2022-09-15T04:20:56.957Z,94.53
2022-09-15T04:21:57.037Z,94.12
2022-09-15T04:22:57.152Z,94.32
2022-09-15T04:23:57.229Z,94.53
2022-09-15T04:24:57.281Z,94.73
2022-09-15T04:25:57.367Z,94.73
2022-09-15T04:26:57.475Z,94.83
2022-09-15T04:27:57.551Z,94.83
2022-09-15T04:29:01.589Z,94.87
2022-09-15T04:29:57.724Z,95.07
2022-09-15T04:30:57.819Z,95.18
2022-09-15T04:31:57.876Z,95.07
2022-09-15T04:32:57.985Z,94.87
2022-09-15T04:33:58.092Z,94.67
2022-09-15T04:34:58.173Z,94.67
2022-09-15T04:35:58.251Z,94.77
2022-09-15T04:36:58.325Z,94.77
2022-09-15T04:37:58.412Z,94.57
2022-09-15T04:38:58.528Z,94.77
2022-09-15T04:39:58.612Z,94.98
2022-09-15T04:40:58.657Z,94.98
2022-09-15T04:41:58.738Z,94.87
2022-09-15T04:42:58.849Z,94.77
2022-09-15T04:43:58.927Z,94.98
2022-09-15T04:44:58.996Z,94.98
2022-09-15T04:45:59.076Z,94.98
2022-09-15T04:46:59.266Z,94.77
2022-09-15T04:47:59.246Z,94.77
2022-09-15T04:48:59.361Z,94.71
2022-09-15T04:49:59.387Z,95.02
2022-09-15T04:50:59.470Z,95.02
2022-09-15T04:51:59.558Z,95.12
2022-09-15T04:52:59.646Z,95.02
2022-09-15T04:53:59.727Z,94.92
2022-09-15T04:54:59.813Z,94.92
2022-09-15T04:55:59.877Z,94.82
2022-09-15T04:56:59.974Z,94.92
2022-09-15T04:58:00.051Z,95.12
2022-09-15T04:59:03.808Z,95.02
2022-09-15T05:00:00.205Z,95.02
2022-09-15T05:01:00.357Z,95.02
2022-09-15T05:02:00.467Z,95.02
2022-09-15T05:03:00.438Z,95.02
2022-09-15T05:04:00.516Z,95.02
2022-09-15T05:05:00.628Z,95.02
2022-09-15T05:06:00.691Z,95.02
2022-09-15T05:07:00.790Z,95.02
2022-09-15T05:08:00.871Z,95.22
2022-09-15T05:09:00.967Z,95.22
2022-09-15T05:10:01.014Z,95.22
2022-09-15T05:11:01.100Z,95.12
2022-09-15T05:12:01.153Z,95.12
2022-09-15T05:13:01.250Z,94.92
2022-09-15T05:14:01.349Z,94.92
2022-09-15T05:15:01.397Z,94.92
2022-09-15T05:16:01.476Z,94.92
2022-09-15T05:17:01.554Z,94.92
2022-09-15T05:18:01.606Z,95.02
2022-09-15T05:19:01.705Z,95.02
2022-09-15T05:20:01.747Z,94.92
2022-09-15T05:21:01.821Z,94.82
2022-09-15T05:22:01.905Z,94.82
2022-09-15T05:23:02.001Z,94.71
2022-09-15T05:24:02.098Z,94.71
2022-09-15T05:25:02.180Z,94.71
2022-09-15T05:26:02.253Z,94.71
2022-09-15T05:27:02.333Z,94.71
2022-09-15T05:28:02.434Z,94.61
2022-09-15T05:29:02.521Z,94.76
2022-09-15T05:30:31.844Z,94.82
2022-09-15T05:31:02.684Z,94.71
2022-09-15T05:32:02.737Z,94.61
2022-09-15T05:33:02.796Z,94.41
2022-09-15T05:34:04.544Z,94.41
2022-09-15T05:35:02.962Z,94.31
2022-09-15T05:36:03.040Z,94.41
2022-09-15T05:37:03.120Z,94.51
2022-09-15T05:38:03.209Z,94.31
2022-09-15T05:39:03.286Z,94.21
2022-09-15T05:40:08.297Z,94.00
2022-09-15T05:41:03.430Z,94.00
2022-09-15T05:42:03.500Z,93.90
2022-09-15T05:43:03.592Z,93.80
2022-09-15T05:44:03.667Z,93.90
2022-09-15T05:45:03.759Z,94.00
2022-09-15T05:46:03.880Z,94.10
2022-09-15T05:47:03.909Z,94.10
2022-09-15T05:48:03.995Z,94.10
2022-09-15T05:49:04.058Z,94.10
2022-09-15T05:50:04.158Z,94.10
2022-09-15T05:51:04.212Z,94.06
2022-09-15T05:52:04.305Z,93.96
2022-09-15T05:53:04.376Z,93.86
2022-09-15T05:54:04.469Z,93.86
2022-09-15T05:55:04.573Z,93.76
2022-09-15T05:56:04.609Z,93.65
2022-09-15T05:57:04.691Z,93.55
2022-09-15T05:58:04.771Z,93.35
2022-09-15T05:59:04.834Z,93.25
2022-09-15T06:00:05.062Z,93.25
2022-09-15T06:01:05.011Z,93.21
2022-09-15T06:02:05.150Z,93.30
2022-09-15T06:03:05.199Z,93.30
2022-09-15T06:04:05.234Z,93.10
2022-09-15T06:05:05.320Z,93.00
2022-09-15T06:06:05.379Z,93.00
2022-09-15T06:07:05.456Z,92.90
2022-09-15T06:08:05.565Z,92.76
2022-09-15T06:09:05.846Z,92.76
2022-09-15T06:10:05.743Z,92.65
2022-09-15T06:11:05.784Z,92.55
2022-09-15T06:12:05.883Z,92.35
2022-09-15T06:13:05.963Z,92.45
2022-09-15T06:14:06.054Z,92.41
2022-09-15T06:15:06.231Z,92.00
2022-09-15T06:16:06.306Z,91.90
2022-09-15T06:17:06.295Z,91.70
2022-09-15T06:18:06.369Z,91.50
2022-09-15T06:19:06.452Z,91.39
2022-09-15T06:20:06.563Z,91.46
2022-09-15T06:21:06.615Z,91.46
2022-09-15T06:22:06.693Z,91.25
2022-09-15T06:23:06.769Z,90.84
2022-09-15T06:24:06.851Z,90.84
2022-09-15T06:25:06.949Z,90.75
2022-09-15T06:26:07.002Z,90.60
2022-09-15T06:27:07.072Z,90.40
2022-09-15T06:28:07.173Z,90.09
2022-09-15T06:29:07.244Z,90.09
2022-09-15T06:30:07.357Z,90.20
2022-09-15T06:31:07.432Z,90.20
2022-09-15T06:32:07.618Z,89.89
2022-09-15T06:33:07.619Z,89.89
2022-09-15T06:34:07.667Z,89.79
2022-09-15T06:35:07.791Z,89.69
2022-09-15T06:36:07.842Z,89.59
2022-09-15T06:37:07.918Z,89.54
2022-09-15T06:38:07.999Z,89.34
2022-09-15T06:39:08.045Z,88.94
2022-09-15T06:40:08.254Z,88.94
2022-09-15T06:41:08.207Z,89.14
2022-09-15T06:42:10.308Z,89.14
2022-09-15T06:43:08.391Z,89.14
2022-09-15T06:44:08.497Z,89.24
2022-09-15T06:45:08.584Z,89.54
2022-09-15T06:46:08.678Z,89.24
2022-09-15T06:47:08.713Z,88.94
2022-09-15T06:48:24.126Z,89.04
2022-09-15T06:49:08.842Z,88.94
2022-09-15T06:50:09.039Z,89.04
2022-09-15T06:51:09.006Z,88.94
2022-09-15T06:52:09.099Z,89.04
2022-09-15T06:53:09.180Z,89.04
2022-09-15T06:54:09.266Z,88.84
2022-09-15T06:55:09.341Z,88.74
2022-09-15T06:56:09.401Z,88.43
2022-09-15T06:57:09.462Z,88.64
2022-09-15T06:58:09.559Z,88.64
2022-09-15T06:59:09.623Z,88.53
2022-09-15T07:00:09.758Z,88.74
2022-09-15T07:01:09.783Z,88.94
2022-09-15T07:02:10.023Z,88.84
2022-09-15T07:03:10.045Z,88.84
2022-09-15T07:04:10.069Z,88.74
2022-09-15T07:05:10.130Z,88.74
2022-09-15T07:06:10.188Z,88.79
2022-09-15T07:07:10.238Z,88.84
2022-09-15T07:08:10.363Z,89.10
2022-09-15T07:09:10.429Z,88.70
2022-09-15T07:10:10.551Z,88.29
2022-09-15T07:11:10.614Z,88.49
2022-09-15T07:12:10.702Z,88.29
2022-09-15T07:13:10.788Z,87.79
2022-09-15T07:14:10.870Z,88.04
2022-09-15T07:15:11.038Z,87.64
2022-09-15T07:16:11.090Z,87.95
2022-09-15T07:17:11.084Z,87.34
2022-09-15T07:18:11.171Z,87.44
2022-09-15T07:19:11.239Z,87.74
2022-09-15T07:20:11.403Z,88.25
2022-09-15T07:21:11.426Z,88.45
2022-09-15T07:22:11.501Z,88.25
2022-09-15T07:23:11.570Z,88.35
2022-09-15T07:24:11.657Z,88.25
2022-09-15T07:25:11.753Z,88.45
2022-09-15T07:26:11.792Z,87.84
2022-09-15T07:27:11.863Z,87.50
2022-09-15T07:28:11.954Z,86.99
2022-09-15T07:29:12.011Z,86.35
2022-09-15T07:30:12.131Z,85.10
2022-09-15T07:31:12.282Z,85.30
2022-09-15T07:32:12.238Z,84.85
2022-09-15T07:33:12.293Z,84.61
2022-09-15T07:34:12.376Z,83.50
2022-09-15T07:35:12.463Z,83.06
2022-09-15T07:36:12.550Z,83.00
2022-09-15T07:37:12.609Z,83.20
2022-09-15T07:38:12.695Z,83.50
2022-09-15T07:39:12.750Z,84.25
2022-09-15T07:40:12.968Z,84.45
2022-09-15T07:41:12.935Z,84.25
2022-09-15T07:42:15.393Z,84.55
2022-09-15T07:43:13.083Z,84.45
2022-09-15T07:44:13.165Z,84.75
2022-09-15T07:45:13.252Z,84.89
2022-09-15T07:46:13.379Z,85.30
2022-09-15T07:47:13.377Z,85.64
2022-09-15T07:48:13.467Z,86.25
2022-09-15T07:49:13.517Z,86.35
2022-09-15T07:50:13.642Z,86.15
2022-09-15T07:51:13.698Z,85.90
2022-09-15T07:52:13.806Z,85.80
2022-09-15T07:53:13.869Z,85.70
2022-09-15T07:54:17.195Z,85.40
2022-09-15T07:55:14.079Z,85.50
2022-09-15T07:56:14.131Z,85.16
2022-09-15T07:57:14.192Z,84.95
2022-09-15T07:58:14.281Z,84.85
2022-09-15T07:59:14.364Z,84.31
2022-09-15T08:00:14.480Z,83.70
2022-09-15T08:01:14.586Z,83.60
2022-09-15T08:02:14.707Z,83.36
2022-09-15T08:03:14.717Z,82.96
2022-09-15T08:04:14.798Z,82.42
2022-09-15T08:05:14.884Z,81.51
2022-09-15T08:06:14.976Z,80.97
2022-09-15T08:07:15.028Z,80.93
2022-09-15T08:08:15.107Z,79.14
2022-09-15T08:09:15.183Z,77.90
2022-09-15T08:10:15.287Z,78.23
2022-09-15T08:11:18.727Z,78.74
2022-09-15T08:12:15.456Z,78.14
2022-09-15T08:13:15.515Z,78.54
2022-09-15T08:14:15.606Z,78.60
2022-09-15T08:15:15.792Z,78.00
2022-09-15T08:16:15.816Z,78.20
2022-09-15T08:17:15.818Z,78.20
2022-09-15T08:18:15.912Z,78.30
2022-09-15T08:19:15.980Z,78.60
2022-09-15T08:20:16.086Z,78.84
2022-09-15T08:21:16.156Z,79.04
2022-09-15T08:22:16.255Z,79.48
2022-09-15T08:23:16.328Z,79.68
2022-09-15T08:24:16.429Z,80.29
2022-09-15T08:25:16.578Z,80.12
2022-09-15T08:26:16.577Z,80.32
2022-09-15T08:27:16.645Z,80.22
2022-09-15T08:28:16.752Z,79.99
2022-09-15T08:29:16.831Z,80.22
2022-09-15T08:30:16.930Z,80.73
2022-09-15T08:31:17.111Z,80.73
2022-09-15T08:32:17.101Z,80.73
2022-09-15T08:33:17.179Z,80.63
2022-09-15T08:34:17.287Z,80.58
2022-09-15T08:35:17.390Z,80.49
2022-09-15T08:36:17.478Z,80.05
2022-09-15T08:37:17.551Z,78.80
2022-09-15T08:38:17.663Z,78.00
2022-09-15T08:39:17.746Z,77.90
2022-09-15T08:40:18.041Z,77.96
2022-09-15T08:41:17.923Z,76.92
2022-09-15T08:42:18.027Z,76.78
2022-09-15T08:43:18.095Z,76.25
2022-09-15T08:44:18.185Z,75.64
2022-09-15T08:45:18.325Z,75.84
2022-09-15T08:46:18.385Z,75.71
2022-09-15T08:47:18.435Z,75.21
2022-09-15T08:48:18.538Z,75.64
2022-09-15T08:49:35.521Z,75.45
2022-09-15T08:50:18.745Z,75.24
2022-09-15T08:51:18.746Z,75.24
2022-09-15T08:52:18.846Z,75.34
2022-09-15T08:53:18.906Z,74.64
2022-09-15T08:54:18.997Z,75.34
2022-09-15T08:55:19.113Z,74.54
2022-09-15T08:56:19.136Z,74.48
2022-09-15T08:57:19.195Z,75.58
2022-09-15T08:58:19.297Z,75.98
2022-09-15T08:59:19.348Z,75.68
2022-09-15T09:00:19.508Z,76.18
2022-09-15T09:01:19.610Z,75.74
2022-09-15T09:02:19.682Z,76.08
2022-09-15T09:03:19.684Z,75.98
2022-09-15T09:04:19.772Z,75.08
2022-09-15T09:05:19.880Z,74.84
2022-09-15T09:06:19.967Z,74.84
2022-09-15T09:07:20.034Z,74.44
2022-09-15T09:08:20.128Z,74.64
2022-09-15T09:09:20.187Z,74.94
2022-09-15T09:10:20.300Z,74.94
2022-09-15T09:11:20.348Z,75.24
2022-09-15T09:12:20.442Z,74.54
2022-09-15T09:13:20.498Z,74.57
2022-09-15T09:14:20.596Z,74.81
2022-09-15T09:15:20.677Z,75.05
2022-09-15T09:16:20.986Z,76.39
2022-09-15T09:17:20.836Z,76.89
2022-09-15T09:18:20.937Z,76.29
2022-09-15T09:19:21.002Z,76.49
2022-09-15T09:20:21.136Z,76.19
2022-09-15T09:21:21.169Z,77.00
2022-09-15T09:22:21.262Z,77.00
2022-09-15T09:23:21.333Z,76.39
2022-09-15T09:24:21.430Z,76.89
2022-09-15T09:25:27.568Z,76.93
2022-09-15T09:26:21.615Z,76.63
2022-09-15T09:27:21.661Z,77.47
2022-09-15T09:28:21.767Z,78.38
2022-09-15T09:29:21.834Z,79.11
2022-09-15T09:30:21.976Z,79.11
2022-09-15T09:31:22.024Z,79.02
2022-09-15T09:32:22.199Z,79.05
2022-09-15T09:33:22.183Z,79.56
2022-09-15T09:34:22.256Z,80.46
2022-09-15T09:35:22.368Z,80.50
2022-09-15T09:36:22.466Z,80.60
2022-09-15T09:37:22.526Z,79.90
2022-09-15T09:38:22.630Z,80.10
2022-09-15T09:39:22.709Z,80.00
2022-09-15T09:40:22.851Z,79.49
2022-09-15T09:41:22.850Z,79.29
2022-09-15T09:42:22.917Z,79.60
2022-09-15T09:43:23.008Z,79.39
2022-09-15T09:44:23.063Z,79.39
2022-09-15T09:45:23.191Z,80.20
2022-09-15T09:46:23.279Z,80.60
2022-09-15T09:47:23.342Z,80.60
2022-09-15T09:48:23.417Z,80.60
2022-09-15T09:49:23.526Z,80.80
2022-09-15T09:50:23.655Z,80.80
2022-09-15T09:51:23.714Z,81.01
2022-09-15T09:52:23.788Z,80.57
2022-09-15T09:53:23.879Z,80.97
2022-09-15T09:54:23.936Z,80.66
2022-09-15T09:55:24.053Z,80.26
2022-09-15T09:56:24.105Z,80.26
2022-09-15T09:57:24.207Z,80.08
2022-09-15T09:58:24.261Z,78.90
2022-09-15T09:59:24.344Z,76.86
2022-09-15T10:00:24.430Z,74.95
2022-09-15T10:01:24.626Z,75.11
2022-09-15T10:02:24.568Z,75.01
2022-09-15T10:03:28.042Z,75.01
2022-09-15T10:04:24.870Z,74.01
2022-09-15T10:05:24.936Z,73.84
2022-09-15T10:06:24.916Z,74.41
2022-09-15T10:07:25.006Z,74.27
2022-09-15T10:08:25.078Z,73.64
2022-09-15T10:09:27.841Z,73.16
2022-09-15T10:10:25.242Z,72.16
2022-09-15T10:11:25.338Z,72.06
2022-09-15T10:12:25.399Z,71.56
2022-09-15T10:13:25.470Z,71.66
2022-09-15T10:14:25.590Z,71.26
2022-09-15T10:15:25.668Z,70.53
2022-09-15T10:16:25.975Z,70.12
2022-09-15T10:17:25.816Z,70.12
2022-09-15T10:18:25.904Z,70.36
2022-09-15T10:19:26.139Z,71.36
2022-09-15T10:20:26.093Z,71.86
2022-09-15T10:21:26.174Z,71.66
2022-09-15T10:22:26.232Z,71.26
2022-09-15T10:23:26.317Z,71.03
2022-09-15T10:24:26.381Z,70.23
2022-09-15T10:25:39.457Z,70.53
2022-09-15T10:26:26.556Z,70.53
2022-09-15T10:27:26.634Z,69.93
2022-09-15T10:28:26.713Z,70.23
2022-09-15T10:29:26.818Z,70.03
2022-09-15T10:30:26.958Z,71.06
2022-09-15T10:31:27.002Z,71.06
2022-09-15T10:32:27.123Z,70.79
2022-09-15T10:33:27.155Z,71.09
2022-09-15T10:34:27.213Z,71.39
2022-09-15T10:35:27.326Z,71.46
2022-09-15T10:36:27.379Z,71.16
2022-09-15T10:37:27.466Z,71.33
2022-09-15T10:38:27.522Z,70.43
2022-09-15T10:39:27.621Z,69.29
2022-09-15T10:40:27.774Z,69.29
2022-09-15T10:41:27.777Z,69.79
2022-09-15T10:42:27.835Z,69.69
2022-09-15T10:43:27.915Z,68.96
2022-09-15T10:44:27.996Z,68.55
2022-09-15T10:45:28.176Z,67.66
2022-09-15T10:46:28.176Z,68.43
2022-09-15T10:47:28.273Z,67.93
2022-09-15T10:48:28.360Z,67.43
2022-09-15T10:49:28.440Z,67.32
2022-09-15T10:50:28.520Z,67.22
2022-09-15T10:51:28.587Z,67.22
2022-09-15T10:52:28.663Z,66.02
2022-09-15T10:53:28.772Z,65.83
2022-09-15T10:54:28.834Z,65.83
2022-09-15T10:55:48.947Z,66.93
2022-09-15T10:56:29.026Z,66.55
2022-09-15T10:57:29.145Z,66.36
2022-09-15T10:58:29.174Z,67.16
2022-09-15T10:59:29.262Z,67.39
2022-09-15T11:00:29.360Z,67.99
2022-09-15T11:01:29.439Z,68.73
2022-09-15T11:02:29.570Z,69.42
2022-09-15T11:03:29.583Z,68.99
2022-09-15T11:04:29.659Z,69.29
2022-09-15T11:05:29.829Z,68.99
2022-09-15T11:06:29.839Z,67.96
2022-09-15T11:07:29.933Z,67.96
2022-09-15T11:08:30.005Z,67.05
2022-09-15T11:09:30.109Z,66.05
2022-09-15T11:10:30.214Z,66.09
2022-09-15T11:11:30.273Z,66.66
2022-09-15T11:12:30.343Z,65.95
2022-09-15T11:13:30.413Z,65.95
2022-09-15T11:14:30.497Z,66.05
2022-09-15T11:15:30.645Z,65.86
2022-09-15T11:16:30.734Z,65.25
2022-09-15T11:17:30.746Z,65.78
2022-09-15T11:18:30.834Z,67.32
2022-09-15T11:19:30.931Z,67.52
2022-09-15T11:20:30.993Z,67.02
2022-09-15T11:21:31.091Z,67.45
2022-09-15T11:22:31.129Z,67.15
2022-09-15T11:23:31.204Z,67.82
2022-09-15T11:24:31.288Z,67.02
2022-09-15T11:25:31.400Z,66.52
2022-09-15T11:26:31.446Z,66.09
2022-09-15T11:27:31.539Z,66.19
2022-09-15T11:28:31.621Z,66.78
2022-09-15T11:29:31.693Z,67.29
2022-09-15T11:30:31.802Z,66.69
2022-09-15T11:31:31.942Z,67.05
2022-09-15T11:32:31.961Z,66.75
2022-09-15T11:33:32.035Z,66.05
2022-09-15T11:34:32.133Z,65.83
2022-09-15T11:35:32.210Z,65.83
2022-09-15T11:36:32.254Z,66.13
2022-09-15T11:37:32.329Z,65.12
2022-09-15T11:38:32.416Z,64.32
2022-09-15T11:39:32.512Z,64.29
2022-09-15T11:40:32.626Z,64.12
2022-09-15T11:41:32.661Z,64.22
2022-09-15T11:42:32.745Z,64.22
2022-09-15T11:43:32.820Z,64.42
2022-09-15T11:44:32.890Z,64.52
2022-09-15T11:45:32.991Z,64.99
2022-09-15T11:46:33.095Z,64.86
2022-09-15T11:47:33.127Z,63.86
2022-09-15T11:48:33.208Z,64.26
2022-09-15T11:49:33.308Z,63.79
2022-09-15T11:50:33.395Z,64.79
2022-09-15T11:51:33.468Z,64.79
2022-09-15T11:52:33.551Z,64.00
2022-09-15T11:53:33.626Z,63.39
2022-09-15T11:54:33.706Z,62.59
2022-09-15T11:55:33.797Z,62.29
2022-09-15T11:56:33.846Z,62.99
2022-09-15T11:57:33.942Z,63.59
2022-09-15T11:58:34.028Z,63.59
2022-09-15T11:59:34.105Z,62.89
2022-09-15T12:00:34.171Z,63.39
2022-09-15T12:01:34.305Z,63.29
2022-09-15T12:02:34.392Z,61.99
2022-09-15T12:03:34.396Z,61.59
2022-09-15T12:04:34.474Z,61.92
2022-09-15T12:05:34.611Z,62.35
2022-09-15T12:06:34.635Z,63.56
2022-09-15T12:07:34.714Z,64.45
2022-09-15T12:08:34.769Z,64.55
2022-09-15T12:09:34.845Z,64.06
2022-09-15T12:10:34.904Z,63.18
2022-09-15T12:11:34.982Z,63.28
2022-09-15T12:12:35.847Z,63.28
2022-09-15T12:13:35.163Z,62.98
2022-09-15T12:14:35.239Z,63.78
2022-09-15T12:15:35.401Z,63.78
2022-09-15T12:16:35.397Z,63.89
2022-09-15T12:17:35.469Z,63.78
2022-09-15T12:18:39.385Z,63.39
2022-09-15T12:19:35.664Z,62.78
2022-09-15T12:20:35.721Z,62.92
2022-09-15T12:21:35.785Z,63.71
2022-09-15T12:22:35.866Z,63.68
2022-09-15T12:23:35.975Z,64.09
2022-09-15T12:24:36.059Z,63.48
2022-09-15T12:25:36.157Z,62.58
2022-09-15T12:26:36.218Z,62.58
2022-09-15T12:27:36.295Z,62.78
2022-09-15T12:28:36.373Z,62.78
2022-09-15T12:29:39.499Z,63.28
2022-09-15T12:30:36.526Z,62.95
2022-09-15T12:31:36.640Z,62.55
2022-09-15T12:32:36.687Z,62.65
2022-09-15T12:33:36.765Z,62.35
2022-09-15T12:34:36.825Z,62.45
2022-09-15T12:35:36.937Z,61.75
2022-09-15T12:36:36.987Z,62.55
2022-09-15T12:37:37.082Z,62.25
2022-09-15T12:38:37.143Z,62.25
2022-09-15T12:39:37.248Z,62.75
2022-09-15T12:40:37.432Z,62.15
2022-09-15T12:41:37.382Z,62.45
2022-09-15T12:42:37.434Z,62.45
2022-09-15T12:43:37.531Z,63.15
2022-09-15T12:44:37.584Z,63.45
2022-09-15T12:45:37.702Z,63.56
2022-09-15T12:46:37.792Z,63.75
2022-09-15T12:47:37.849Z,63.45
2022-09-15T12:48:37.907Z,63.15
2022-09-15T12:49:37.986Z,62.45
2022-09-15T12:50:38.058Z,62.75
2022-09-15T12:51:38.146Z,62.05
2022-09-15T12:52:38.226Z,62.15
2022-09-15T12:53:39.074Z,62.95